sensor_id;sensor_type;location;lat;lon;timestamp;pressure;altitude;pressure_sealevel;temperature;humidity
23281;BME280;11809;56.390;-3.266;2023-05-21T00:02:15;102102.44;;;18.06;60.46
23281;BME280;11809;56.390;-3.266;2023-05-21T00:04:44;102099.81;;;18.04;60.16
23281;BME280;11809;56.390;-3.266;2023-05-21T00:07:11;102093.66;;;18.04;60.18
23281;BME280;11809;56.390;-3.266;2023-05-21T00:09:39;102088.34;;;18.04;60.37
23281;BME280;11809;56.390;-3.266;2023-05-21T00:12:07;102091.06;;;18.02;60.40
23281;BME280;11809;56.390;-3.266;2023-05-21T00:14:35;102089.34;;;18.01;60.29
23281;BME280;11809;56.390;-3.266;2023-05-21T00:17:02;102092.84;;;18.02;60.41
23281;BME280;11809;56.390;-3.266;2023-05-21T00:19:29;102090.38;;;17.99;60.35
23281;BME280;11809;56.390;-3.266;2023-05-21T00:21:58;102086.75;;;18.00;60.33
23281;BME280;11809;56.390;-3.266;2023-05-21T00:24:28;102088.50;;;18.01;60.37
23281;BME280;11809;56.390;-3.266;2023-05-21T00:26:55;102093.81;;;18.01;60.41
23281;BME280;11809;56.390;-3.266;2023-05-21T00:29:22;102093.88;;;17.99;60.55
23281;BME280;11809;56.390;-3.266;2023-05-21T00:31:50;102086.75;;;18.00;60.26
23281;BME280;11809;56.390;-3.266;2023-05-21T00:34:18;102092.06;;;18.00;60.48
23281;BME280;11809;56.390;-3.266;2023-05-21T00:36:45;102096.63;;;17.98;60.33
23281;BME280;11809;56.390;-3.266;2023-05-21T00:39:12;102098.41;;;17.97;60.46
23281;BME280;11809;56.390;-3.266;2023-05-21T00:41:40;102086.03;;;17.96;60.35
23281;BME280;11809;56.390;-3.266;2023-05-21T00:44:08;102087.75;;;17.97;60.27
23281;BME280;11809;56.390;-3.266;2023-05-21T00:46:35;102086.84;;;17.98;60.42
23281;BME280;11809;56.390;-3.266;2023-05-21T00:49:03;102088.63;;;17.98;60.49
23281;BME280;11809;56.390;-3.266;2023-05-21T00:51:30;102085.09;;;17.97;60.24
23281;BME280;11809;56.390;-3.266;2023-05-21T00:53:57;102090.44;;;17.97;60.32
23281;BME280;11809;56.390;-3.266;2023-05-21T00:56:24;102087.75;;;17.97;60.27
23281;BME280;11809;56.390;-3.266;2023-05-21T00:58:56;102076.25;;;17.97;60.27
23281;BME280;11809;56.390;-3.266;2023-05-21T01:01:24;102075.38;;;17.96;60.38
23281;BME280;11809;56.390;-3.266;2023-05-21T01:04:00;102084.31;;;17.95;60.48
23281;BME280;11809;56.390;-3.266;2023-05-21T01:06:27;102078.06;;;17.96;60.27
23281;BME280;11809;56.390;-3.266;2023-05-21T01:08:55;102085.19;;;17.96;60.32
23281;BME280;11809;56.390;-3.266;2023-05-21T01:11:38;102081.56;;;17.97;60.36
23281;BME280;11809;56.390;-3.266;2023-05-21T01:14:07;102080.72;;;17.96;60.31
23281;BME280;11809;56.390;-3.266;2023-05-21T01:16:36;102083.38;;;17.96;60.44
23281;BME280;11809;56.390;-3.266;2023-05-21T01:19:05;102083.31;;;17.98;60.31
23281;BME280;11809;56.390;-3.266;2023-05-21T01:21:40;102084.25;;;17.97;60.28
23281;BME280;11809;56.390;-3.266;2023-05-21T01:24:08;102082.44;;;17.97;60.30
23281;BME280;11809;56.390;-3.266;2023-05-21T01:26:35;102073.69;;;17.95;60.34
23281;BME280;11809;56.390;-3.266;2023-05-21T01:29:05;102077.22;;;17.96;60.39
23281;BME280;11809;56.390;-3.266;2023-05-21T01:34:12;102070.94;;;17.97;60.50
23281;BME280;11809;56.390;-3.266;2023-05-21T01:36:48;102076.25;;;17.97;60.43
23281;BME280;11809;56.390;-3.266;2023-05-21T01:39:25;102081.56;;;17.97;60.57
23281;BME280;11809;56.390;-3.266;2023-05-21T01:41:55;102080.72;;;17.96;60.24
23281;BME280;11809;56.390;-3.266;2023-05-21T01:44:23;102085.19;;;17.96;60.40
23281;BME280;11809;56.390;-3.266;2023-05-21T01:46:53;102084.25;;;17.97;60.47
23281;BME280;11809;56.390;-3.266;2023-05-21T01:49:22;102077.13;;;17.97;60.32
23281;BME280;11809;56.390;-3.266;2023-05-21T01:51:49;102081.56;;;17.97;60.38
23281;BME280;11809;56.390;-3.266;2023-05-21T01:54:17;102082.44;;;17.97;60.40
23281;BME280;11809;56.390;-3.266;2023-05-21T01:56:44;102075.38;;;17.96;60.37
23281;BME280;11809;56.390;-3.266;2023-05-21T01:59:11;102073.59;;;17.97;60.43
23281;BME280;11809;56.390;-3.266;2023-05-21T02:01:39;102073.59;;;17.97;60.51
23281;BME280;11809;56.390;-3.266;2023-05-21T02:04:06;102078.06;;;17.96;60.50
23281;BME280;11809;56.390;-3.266;2023-05-21T02:06:33;102075.38;;;17.96;60.24
23281;BME280;11809;56.390;-3.266;2023-05-21T02:09:02;102074.56;;;17.96;60.33
23281;BME280;11809;56.390;-3.266;2023-05-21T02:11:30;102074.56;;;17.96;60.36
23281;BME280;11809;56.390;-3.266;2023-05-21T02:13:57;102071.03;;;17.95;60.35
23281;BME280;11809;56.390;-3.266;2023-05-21T02:16:25;102070.94;;;17.97;60.54
23281;BME280;11809;56.390;-3.266;2023-05-21T02:18:52;102067.41;;;17.96;60.49
23281;BME280;11809;56.390;-3.266;2023-05-21T02:21:20;102067.34;;;17.98;60.35
23281;BME280;11809;56.390;-3.266;2023-05-21T02:23:47;102065.63;;;17.97;60.31
23281;BME280;11809;56.390;-3.266;2023-05-21T02:26:14;102068.28;;;17.97;60.50
23281;BME280;11809;56.390;-3.266;2023-05-21T02:28:43;102063.81;;;17.97;60.32
23281;BME280;11809;56.390;-3.266;2023-05-21T02:31:10;102067.34;;;17.98;60.42
23281;BME280;11809;56.390;-3.266;2023-05-21T02:33:40;102068.22;;;17.98;60.50
23281;BME280;11809;56.390;-3.266;2023-05-21T02:36:08;102071.75;;;17.99;60.50
23281;BME280;11809;56.390;-3.266;2023-05-21T02:38:39;102060.25;;;17.98;60.28
23281;BME280;11809;56.390;-3.266;2023-05-21T02:41:10;102062.91;;;17.98;60.48
23281;BME280;11809;56.390;-3.266;2023-05-21T02:43:37;102057.59;;;17.98;60.40
23281;BME280;11809;56.390;-3.266;2023-05-21T02:46:05;102058.44;;;17.99;60.40
23281;BME280;11809;56.390;-3.266;2023-05-21T02:48:33;102053.13;;;17.99;60.50
23281;BME280;11809;56.390;-3.266;2023-05-21T02:51:00;102057.50;;;18.00;60.35
23281;BME280;11809;56.390;-3.266;2023-05-21T02:53:27;102053.13;;;17.99;60.36
23281;BME280;11809;56.390;-3.266;2023-05-21T02:55:54;102058.44;;;17.99;60.41
23281;BME280;11809;56.390;-3.266;2023-05-21T02:58:22;102048.66;;;17.99;60.44
23281;BME280;11809;56.390;-3.266;2023-05-21T03:00:51;102053.97;;;17.99;60.53
23281;BME280;11809;56.390;-3.266;2023-05-21T03:03:19;102047.81;;;17.99;60.52
23281;BME280;11809;56.390;-3.266;2023-05-21T03:05:46;102051.41;;;17.98;60.56
23281;BME280;11809;56.390;-3.266;2023-05-21T03:08:14;102042.50;;;17.99;60.48
23281;BME280;11809;56.390;-3.266;2023-05-21T03:10:41;102042.50;;;17.99;60.60
23281;BME280;11809;56.390;-3.266;2023-05-21T03:13:08;102043.31;;;17.99;60.27
23281;BME280;11809;56.390;-3.266;2023-05-21T03:15:35;102038.00;;;17.99;60.32
23281;BME280;11809;56.390;-3.266;2023-05-21T03:18:05;102042.41;;;18.00;60.44
23281;BME280;11809;56.390;-3.266;2023-05-21T03:20:32;102031.75;;;18.00;60.47
23281;BME280;11809;56.390;-3.266;2023-05-21T03:22:59;102034.41;;;18.00;60.51
23281;BME280;11809;56.390;-3.266;2023-05-21T03:25:30;102030.97;;;17.98;60.33
23281;BME280;11809;56.390;-3.266;2023-05-21T03:27:57;102037.09;;;18.00;60.53
23281;BME280;11809;56.390;-3.266;2023-05-21T03:30:24;102031.84;;;17.99;60.52
23281;BME280;11809;56.390;-3.266;2023-05-21T03:32:51;102033.63;;;17.98;60.37
23281;BME280;11809;56.390;-3.266;2023-05-21T03:35:18;102032.78;;;17.98;60.43
23281;BME280;11809;56.390;-3.266;2023-05-21T03:37:45;102030.97;;;17.98;60.53
23281;BME280;11809;56.390;-3.266;2023-05-21T03:40:13;102031.84;;;17.99;60.48
23281;BME280;11809;56.390;-3.266;2023-05-21T03:42:40;102031.84;;;17.99;60.38
23281;BME280;11809;56.390;-3.266;2023-05-21T03:45:07;102029.19;;;17.99;60.33
23281;BME280;11809;56.390;-3.266;2023-05-21T03:47:34;102032.69;;;17.99;60.53
23281;BME280;11809;56.390;-3.266;2023-05-21T03:50:05;102038.09;;;17.98;60.28
23281;BME280;11809;56.390;-3.266;2023-05-21T03:52:32;102037.16;;;17.99;60.47
23281;BME280;11809;56.390;-3.266;2023-05-21T03:54:59;102045.16;;;17.99;60.43
23281;BME280;11809;56.390;-3.266;2023-05-21T03:57:27;102036.22;;;18.00;60.34
23281;BME280;11809;56.390;-3.266;2023-05-21T03:59:54;102036.22;;;18.00;60.35
23281;BME280;11809;56.390;-3.266;2023-05-21T04:02:21;102036.22;;;18.00;60.35
23281;BME280;11809;56.390;-3.266;2023-05-21T04:04:49;102038.88;;;18.00;60.34
23281;BME280;11809;56.390;-3.266;2023-05-21T04:07:17;102035.44;;;17.98;60.30
23281;BME280;11809;56.390;-3.266;2023-05-21T04:09:44;102036.22;;;18.00;60.17
23281;BME280;11809;56.390;-3.266;2023-05-21T04:12:12;102035.34;;;17.99;60.33
23281;BME280;11809;56.390;-3.266;2023-05-21T04:14:40;102030.03;;;17.99;60.45
23281;BME280;11809;56.390;-3.266;2023-05-21T04:17:07;102026.53;;;17.99;60.43
23281;BME280;11809;56.390;-3.266;2023-05-21T04:19:34;102031.84;;;17.99;60.34
23281;BME280;11809;56.390;-3.266;2023-05-21T04:22:02;102024.69;;;17.99;60.35
23281;BME280;11809;56.390;-3.266;2023-05-21T04:24:29;102026.53;;;17.99;60.35
23281;BME280;11809;56.390;-3.266;2023-05-21T04:26:57;102030.88;;;18.00;60.36
23281;BME280;11809;56.390;-3.266;2023-05-21T04:29:27;102019.47;;;17.98;60.25
23281;BME280;11809;56.390;-3.266;2023-05-21T04:31:55;102023.78;;;18.00;60.24
23281;BME280;11809;56.390;-3.266;2023-05-21T04:34:22;102023.78;;;18.00;60.28
23281;BME280;11809;56.390;-3.266;2023-05-21T04:36:49;102016.81;;;17.98;60.31
23281;BME280;11809;56.390;-3.266;2023-05-21T04:39:18;102017.59;;;18.00;60.27
23281;BME280;11809;56.390;-3.266;2023-05-21T04:41:45;102022.91;;;18.00;60.31
23281;BME280;11809;56.390;-3.266;2023-05-21T04:44:12;102013.22;;;17.99;60.19
23281;BME280;11809;56.390;-3.266;2023-05-21T04:46:40;102015.06;;;17.97;60.52
23281;BME280;11809;56.390;-3.266;2023-05-21T04:49:08;102010.56;;;17.99;60.43
23281;BME280;11809;56.390;-3.266;2023-05-21T04:51:36;102021.22;;;17.99;60.42
23281;BME280;11809;56.390;-3.266;2023-05-21T04:54:03;102021.22;;;17.99;60.42
23281;BME280;11809;56.390;-3.266;2023-05-21T04:56:30;102023.00;;;17.98;60.27
23281;BME280;11809;56.390;-3.266;2023-05-21T04:58:58;102022.13;;;17.98;60.27
23281;BME280;11809;56.390;-3.266;2023-05-21T05:01:25;102020.47;;;17.95;60.35
23281;BME280;11809;56.390;-3.266;2023-05-21T05:03:55;102015.16;;;17.95;60.40
23281;BME280;11809;56.390;-3.266;2023-05-21T05:06:22;102022.19;;;17.96;60.28
23281;BME280;11809;56.390;-3.266;2023-05-21T05:08:51;102023.06;;;17.97;60.44
23281;BME280;11809;56.390;-3.266;2023-05-21T05:11:19;102023.06;;;17.97;60.35
23281;BME280;11809;56.390;-3.266;2023-05-21T05:13:46;102022.13;;;17.98;60.40
23281;BME280;11809;56.390;-3.266;2023-05-21T05:16:13;102019.47;;;17.98;60.24
23281;BME280;11809;56.390;-3.266;2023-05-21T05:18:43;102016.81;;;17.98;60.25
23281;BME280;11809;56.390;-3.266;2023-05-21T05:21:11;102020.41;;;17.97;60.36
23281;BME280;11809;56.390;-3.266;2023-05-21T05:23:38;102021.25;;;17.97;60.25
23281;BME280;11809;56.390;-3.266;2023-05-21T05:26:05;102019.47;;;17.98;60.36
23281;BME280;11809;56.390;-3.266;2023-05-21T05:28:32;102021.22;;;17.99;60.29
23281;BME280;11809;56.390;-3.266;2023-05-21T05:30:59;102018.56;;;17.99;60.18
23281;BME280;11809;56.390;-3.266;2023-05-21T05:33:27;102023.88;;;17.99;60.28
23281;BME280;11809;56.390;-3.266;2023-05-21T05:35:54;102019.47;;;17.98;60.40
23281;BME280;11809;56.390;-3.266;2023-05-21T05:38:22;102023.91;;;17.97;60.39
23281;BME280;11809;56.390;-3.266;2023-05-21T05:40:49;102018.56;;;17.99;60.22
23281;BME280;11809;56.390;-3.266;2023-05-21T05:43:16;102023.88;;;17.99;60.28
23281;BME280;11809;56.390;-3.266;2023-05-21T05:45:43;102022.13;;;17.98;60.27
23281;BME280;11809;56.390;-3.266;2023-05-21T05:48:10;102024.78;;;17.98;60.26
23281;BME280;11809;56.390;-3.266;2023-05-21T05:50:37;102025.66;;;17.98;60.45
23281;BME280;11809;56.390;-3.266;2023-05-21T05:53:04;102030.97;;;17.98;60.25
23281;BME280;11809;56.390;-3.266;2023-05-21T05:55:33;102029.19;;;17.99;60.42
23281;BME280;11809;56.390;-3.266;2023-05-21T05:58:00;102026.53;;;17.99;60.33
23281;BME280;11809;56.390;-3.266;2023-05-21T06:00:27;102030.97;;;17.98;60.28
23281;BME280;11809;56.390;-3.266;2023-05-21T06:02:55;102034.50;;;17.99;60.25
23281;BME280;11809;56.390;-3.266;2023-05-21T06:05:22;102032.78;;;17.98;60.36
23281;BME280;11809;56.390;-3.266;2023-05-21T06:07:49;102030.97;;;17.98;60.23
23281;BME280;11809;56.390;-3.266;2023-05-21T06:10:16;102025.66;;;17.98;60.18
23281;BME280;11809;56.390;-3.266;2023-05-21T06:12:44;102026.53;;;17.99;60.40
23281;BME280;11809;56.390;-3.266;2023-05-21T06:15:12;102030.88;;;18.00;60.31
23281;BME280;11809;56.390;-3.266;2023-05-21T06:17:40;102030.03;;;17.99;60.47
23281;BME280;11809;56.390;-3.266;2023-05-21T06:20:08;102034.34;;;18.02;60.46
23281;BME280;11809;56.390;-3.266;2023-05-21T06:22:35;102034.81;;;18.10;60.33
23281;BME280;11809;56.390;-3.266;2023-05-21T06:25:03;102034.66;;;18.13;60.35
23281;BME280;11809;56.390;-3.266;2023-05-21T06:27:30;102026.06;;;18.08;60.67
23281;BME280;11809;56.390;-3.266;2023-05-21T06:29:58;102033.13;;;18.09;60.85
23281;BME280;11809;56.390;-3.266;2023-05-21T06:32:25;102031.22;;;18.11;61.07
23281;BME280;11809;56.390;-3.266;2023-05-21T06:34:52;102036.41;;;18.14;60.98
23281;BME280;11809;56.390;-3.266;2023-05-21T06:37:19;102040.78;;;18.15;61.15
23281;BME280;11809;56.390;-3.266;2023-05-21T06:39:49;102039.84;;;18.16;61.32
23281;BME280;11809;56.390;-3.266;2023-05-21T06:42:16;102045.31;;;18.13;60.92
23281;BME280;11809;56.390;-3.266;2023-05-21T06:44:43;102037.47;;;18.10;61.15
23281;BME280;11809;56.390;-3.266;2023-05-21T06:47:11;102051.41;;;18.15;61.44
23281;BME280;11809;56.390;-3.266;2023-05-21T06:49:38;102045.66;;;18.24;61.58
23281;BME280;11809;56.390;-3.266;2023-05-21T06:52:05;102049.91;;;18.28;61.70
23281;BME280;11809;56.390;-3.266;2023-05-21T06:54:32;102053.34;;;18.30;61.78
23281;BME280;11809;56.390;-3.266;2023-05-21T06:57:00;102052.16;;;18.36;62.07
23281;BME280;11809;56.390;-3.266;2023-05-21T06:59:27;102051.94;;;18.40;62.61
23281;BME280;11809;56.390;-3.266;2023-05-21T07:01:55;102052.84;;;18.39;62.07
23281;BME280;11809;56.390;-3.266;2023-05-21T07:04:22;102059.91;;;18.40;61.60
23281;BME280;11809;56.390;-3.266;2023-05-21T07:06:49;102062.50;;;18.42;61.58
23281;BME280;11809;56.390;-3.266;2023-05-21T07:09:18;102061.47;;;18.44;61.53
23281;BME280;11809;56.390;-3.266;2023-05-21T07:11:45;102061.19;;;18.50;61.22
23281;BME280;11809;56.390;-3.266;2023-05-21T07:14:12;102069.28;;;18.49;61.55
23281;BME280;11809;56.390;-3.266;2023-05-21T07:16:40;102068.31;;;18.50;61.49
23281;BME280;11809;56.390;-3.266;2023-05-21T07:19:07;102065.59;;;18.51;61.08
23281;BME280;11809;56.390;-3.266;2023-05-21T07:21:34;102064.63;;;18.52;61.12
23281;BME280;11809;56.390;-3.266;2023-05-21T07:24:01;102067.31;;;18.52;60.95
23281;BME280;11809;56.390;-3.266;2023-05-21T07:26:29;102065.44;;;18.54;60.93
23281;BME280;11809;56.390;-3.266;2023-05-21T07:28:56;102067.16;;;18.55;60.81
23281;BME280;11809;56.390;-3.266;2023-05-21T07:31:23;102070.69;;;18.56;60.93
23281;BME280;11809;56.390;-3.266;2023-05-21T07:33:51;102067.97;;;18.57;60.97
23281;BME280;11809;56.390;-3.266;2023-05-21T07:36:18;102067.00;;;18.58;60.98
23281;BME280;11809;56.390;-3.266;2023-05-21T07:38:45;102080.31;;;18.58;60.62
23281;BME280;11809;56.390;-3.266;2023-05-21T07:41:13;102074.84;;;18.61;60.57
23281;BME280;11809;56.390;-3.266;2023-05-21T07:43:43;102078.28;;;18.63;60.63
23281;BME280;11809;56.390;-3.266;2023-05-21T07:46:10;102082.69;;;18.64;60.62
23281;BME280;11809;56.390;-3.266;2023-05-21T07:48:37;102080.88;;;18.65;60.52
23281;BME280;11809;56.390;-3.266;2023-05-21T07:51:04;102084.41;;;18.65;60.75
23281;BME280;11809;56.390;-3.266;2023-05-21T07:53:32;102087.91;;;18.66;60.63
23281;BME280;11809;56.390;-3.266;2023-05-21T07:55:59;102089.66;;;18.67;60.78
23281;BME280;11809;56.390;-3.266;2023-05-21T07:58:26;102095.84;;;18.67;60.53
23281;BME280;11809;56.390;-3.266;2023-05-21T08:00:54;102097.53;;;18.68;60.67
23281;BME280;11809;56.390;-3.266;2023-05-21T08:03:22;102099.44;;;18.66;60.60
23281;BME280;11809;56.390;-3.266;2023-05-21T08:05:49;102100.16;;;18.70;60.41
23281;BME280;11809;56.390;-3.266;2023-05-21T08:08:18;102099.28;;;18.69;60.58
23281;BME280;11809;56.390;-3.266;2023-05-21T08:10:45;102109.84;;;18.71;60.61
23281;BME280;11809;56.390;-3.266;2023-05-21T08:13:16;102108.66;;;18.76;60.95
23281;BME280;11809;56.390;-3.266;2023-05-21T08:15:44;102104.94;;;18.81;60.65
23281;BME280;11809;56.390;-3.266;2023-05-21T08:18:11;102105.84;;;18.80;60.49
23281;BME280;11809;56.390;-3.266;2023-05-21T08:20:39;102103.97;;;18.82;60.26
23281;BME280;11809;56.390;-3.266;2023-05-21T08:23:07;102106.41;;;18.86;60.72
23281;BME280;11809;56.390;-3.266;2023-05-21T08:25:34;102097.72;;;18.83;60.37
23281;BME280;11809;56.390;-3.266;2023-05-21T08:28:02;102098.63;;;18.82;60.53
23281;BME280;11809;56.390;-3.266;2023-05-21T08:30:29;102112.91;;;18.81;60.07
23281;BME280;11809;56.390;-3.266;2023-05-21T08:32:56;102108.38;;;18.83;60.27
23281;BME280;11809;56.390;-3.266;2023-05-21T08:35:24;102108.13;;;18.87;60.19
23281;BME280;11809;56.390;-3.266;2023-05-21T08:37:51;102116.81;;;18.91;60.54
23281;BME280;11809;56.390;-3.266;2023-05-21T08:40:19;102107.75;;;18.95;60.35
23281;BME280;11809;56.390;-3.266;2023-05-21T08:42:47;102114.94;;;18.93;60.41
23281;BME280;11809;56.390;-3.266;2023-05-21T08:45:20;102121.28;;;18.90;60.22
23281;BME280;11809;56.390;-3.266;2023-05-21T08:47:56;102123.03;;;18.91;60.28
23281;BME280;11809;56.390;-3.266;2023-05-21T08:50:25;102123.88;;;18.92;60.52
23281;BME280;11809;56.390;-3.266;2023-05-21T08:52:53;102128.97;;;18.96;60.59
23281;BME280;11809;56.390;-3.266;2023-05-21T08:55:21;102124.50;;;18.97;60.69
23281;BME280;11809;56.390;-3.266;2023-05-21T08:57:49;102131.53;;;18.98;60.33
23281;BME280;11809;56.390;-3.266;2023-05-21T09:00:16;102128.09;;;18.96;60.29
23281;BME280;11809;56.390;-3.266;2023-05-21T09:02:44;102137.06;;;18.95;60.14
23281;BME280;11809;56.390;-3.266;2023-05-21T09:05:14;102135.31;;;18.94;60.24
23281;BME280;11809;56.390;-3.266;2023-05-21T09:10:13;102138.84;;;18.94;60.17
23281;BME280;11809;56.390;-3.266;2023-05-21T09:12:40;102135.31;;;18.94;60.27
23281;BME280;11809;56.390;-3.266;2023-05-21T09:15:08;102138.75;;;18.96;60.10
23281;BME280;11809;56.390;-3.266;2023-05-21T09:17:36;102146.69;;;18.97;60.37
23281;BME280;11809;56.390;-3.266;2023-05-21T09:22:46;102144.41;;;19.07;60.33
23281;BME280;11809;56.390;-3.266;2023-05-21T09:25:16;102134.69;;;19.06;60.31
23281;BME280;11809;56.390;-3.266;2023-05-21T09:27:44;102135.53;;;19.06;59.85
23281;BME280;11809;56.390;-3.266;2023-05-21T09:30:15;102137.28;;;19.07;59.86
23281;BME280;11809;56.390;-3.266;2023-05-21T09:32:44;102139.94;;;19.07;59.58
23281;BME280;11809;56.390;-3.266;2023-05-21T09:35:13;102134.69;;;19.06;59.41
23281;BME280;11809;56.390;-3.266;2023-05-21T09:37:46;102135.53;;;19.06;59.57
23281;BME280;11809;56.390;-3.266;2023-05-21T09:40:18;102125.75;;;19.07;59.70
23281;BME280;11809;56.390;-3.266;2023-05-21T09:42:50;102126.63;;;19.07;59.74
23281;BME280;11809;56.390;-3.266;2023-05-21T09:47:46;102137.81;;;19.14;59.60
23281;BME280;11809;56.390;-3.266;2023-05-21T09:50:19;102133.28;;;19.16;59.45
23281;BME280;11809;56.390;-3.266;2023-05-21T09:52:48;102140.94;;;19.22;59.89
23281;BME280;11809;56.390;-3.266;2023-05-21T09:55:25;102140.41;;;19.15;59.63
23281;BME280;11809;56.390;-3.266;2023-05-21T09:57:52;102133.50;;;19.11;59.52
23281;BME280;11809;56.390;-3.266;2023-05-21T10:00:21;102133.50;;;19.11;59.52
23281;BME280;11809;56.390;-3.266;2023-05-21T10:02:53;102133.66;;;19.08;59.50
23281;BME280;11809;56.390;-3.266;2023-05-21T10:05:25;102131.94;;;19.07;59.43
23281;BME280;11809;56.390;-3.266;2023-05-21T10:08:00;102129.34;;;19.06;59.43
23281;BME280;11809;56.390;-3.266;2023-05-21T10:10:30;102130.16;;;19.08;59.30
23281;BME280;11809;56.390;-3.266;2023-05-21T10:13:00;102133.75;;;19.07;59.26
23281;BME280;11809;56.390;-3.266;2023-05-21T10:15:31;102139.06;;;19.07;59.37
23281;BME280;11809;56.390;-3.266;2023-05-21T10:18:02;102135.53;;;19.06;58.92
23281;BME280;11809;56.390;-3.266;2023-05-21T10:20:30;102148.72;;;19.09;59.23
23281;BME280;11809;56.390;-3.266;2023-05-21T10:22:57;102152.31;;;18.91;58.84
23281;BME280;11809;56.390;-3.266;2023-05-21T10:25:25;102148.00;;;18.71;59.27
23281;BME280;11809;56.390;-3.266;2023-05-21T10:27:54;102146.44;;;18.67;59.54
23281;BME280;11809;56.390;-3.266;2023-05-21T10:30:22;102156.69;;;18.75;60.03
23281;BME280;11809;56.390;-3.266;2023-05-21T10:32:50;102150.06;;;18.84;60.02
23281;BME280;11809;56.390;-3.266;2023-05-21T10:35:17;102155.22;;;18.87;60.18
23281;BME280;11809;56.390;-3.266;2023-05-21T10:37:45;102155.78;;;18.93;59.92
23281;BME280;11809;56.390;-3.266;2023-05-21T10:40:12;102154.84;;;18.94;60.41
23281;BME280;11809;56.390;-3.266;2023-05-21T10:51:27;102151.00;;;19.00;61.20
23281;BME280;11809;56.390;-3.266;2023-05-21T10:59:50;102148.53;;;18.61;59.88
23281;BME280;11809;56.390;-3.266;2023-05-21T11:02:18;102142.09;;;18.48;60.09
23281;BME280;11809;56.390;-3.266;2023-05-21T11:04:57;102151.28;;;18.41;60.01
23281;BME280;11809;56.390;-3.266;2023-05-21T11:10:37;102151.72;;;18.32;59.92
23281;BME280;11809;56.390;-3.266;2023-05-21T11:13:13;102146.97;;;18.38;60.63
23281;BME280;11809;56.390;-3.266;2023-05-21T11:21:18;102146.09;;;18.56;61.80
23281;BME280;11809;56.390;-3.266;2023-05-21T11:23:54;102146.66;;;18.63;61.85
23281;BME280;11809;56.390;-3.266;2023-05-21T11:26:27;102152.63;;;18.68;62.08
23281;BME280;11809;56.390;-3.266;2023-05-21T11:31:32;102150.34;;;18.77;62.38
23281;BME280;11809;56.390;-3.266;2023-05-21T11:34:20;102154.09;;;18.73;61.50
23281;BME280;11809;56.390;-3.266;2023-05-21T11:39:44;102162.56;;;18.82;62.31
23281;BME280;11809;56.390;-3.266;2023-05-21T11:42:12;102163.78;;;18.76;61.64
23281;BME280;11809;56.390;-3.266;2023-05-21T11:44:44;102159.28;;;18.76;61.48
23281;BME280;11809;56.390;-3.266;2023-05-21T11:47:13;102157.31;;;18.80;61.79
23281;BME280;11809;56.390;-3.266;2023-05-21T11:49:47;102157.56;;;18.75;61.37
23281;BME280;11809;56.390;-3.266;2023-05-21T11:52:15;102166.34;;;18.77;61.54
23281;BME280;11809;56.390;-3.266;2023-05-21T11:54:47;102175.81;;;18.83;62.29
23281;BME280;11809;56.390;-3.266;2023-05-21T11:57:17;102167.88;;;18.82;62.26
23281;BME280;11809;56.390;-3.266;2023-05-21T11:59:46;102163.53;;;18.81;61.46
23281;BME280;11809;56.390;-3.266;2023-05-21T12:02:14;102165.22;;;18.82;61.40
23281;BME280;11809;56.390;-3.266;2023-05-21T12:04:47;102168.84;;;18.81;61.45
23281;BME280;11809;56.390;-3.266;2023-05-21T12:07:16;102165.31;;;18.80;61.35
23281;BME280;11809;56.390;-3.266;2023-05-21T12:09:49;102167.88;;;18.82;61.30
23281;BME280;11809;56.390;-3.266;2023-05-21T12:12:19;102169.56;;;18.84;62.31
23281;BME280;11809;56.390;-3.266;2023-05-21T12:14:49;102172.78;;;18.91;61.75
23281;BME280;11809;56.390;-3.266;2023-05-21T12:17:21;102161.72;;;18.98;61.23
23281;BME280;11809;56.390;-3.266;2023-05-21T12:19:53;102161.50;;;19.03;61.21
23281;BME280;11809;56.390;-3.266;2023-05-21T12:22:22;102165.88;;;19.04;61.42
23281;BME280;11809;56.390;-3.266;2023-05-21T12:24:50;102165.41;;;18.96;61.08
23281;BME280;11809;56.390;-3.266;2023-05-21T12:27:21;102174.50;;;18.92;60.74
23281;BME280;11809;56.390;-3.266;2023-05-21T12:29:49;102166.56;;;18.90;60.58
23281;BME280;11809;56.390;-3.266;2023-05-21T12:32:19;102178.09;;;18.91;60.38
23281;BME280;11809;56.390;-3.266;2023-05-21T12:34:49;102172.91;;;18.88;60.49
23281;BME280;11809;56.390;-3.266;2023-05-21T12:39:53;102178.34;;;18.86;60.47
23281;BME280;11809;56.390;-3.266;2023-05-21T12:42:38;102173.09;;;19.02;60.52
23281;BME280;11809;56.390;-3.266;2023-05-21T12:45:07;102169.56;;;19.01;60.67
23281;BME280;11809;56.390;-3.266;2023-05-21T12:47:35;102169.88;;;18.95;60.53
23281;BME280;11809;56.390;-3.266;2023-05-21T12:50:07;102171.03;;;18.90;60.56
23281;BME280;11809;56.390;-3.266;2023-05-21T12:52:35;102173.69;;;18.90;60.68
23281;BME280;11809;56.390;-3.266;2023-05-21T12:55:03;102176.44;;;18.88;60.15
23281;BME280;11809;56.390;-3.266;2023-05-21T12:57:34;102171.03;;;18.90;60.35
23281;BME280;11809;56.390;-3.266;2023-05-21T13:00:03;102177.94;;;18.94;60.39
23281;BME280;11809;56.390;-3.266;2023-05-21T13:02:34;102173.50;;;18.94;60.20
23281;BME280;11809;56.390;-3.266;2023-05-21T13:05:06;102174.50;;;18.92;60.37
23281;BME280;11809;56.390;-3.266;2023-05-21T13:07:35;102173.78;;;18.88;60.33
23281;BME280;11809;56.390;-3.266;2023-05-21T13:10:06;102180.00;;;18.89;60.27
23281;BME280;11809;56.390;-3.266;2023-05-21T13:12:34;102181.69;;;18.90;60.19
23281;BME280;11809;56.390;-3.266;2023-05-21T13:15:02;102176.53;;;18.87;60.26
23281;BME280;11809;56.390;-3.266;2023-05-21T13:17:30;102176.38;;;18.90;60.44
23281;BME280;11809;56.390;-3.266;2023-05-21T13:20:15;102177.22;;;18.90;60.41
23281;BME280;11809;56.390;-3.266;2023-05-21T13:22:49;102178.00;;;18.92;60.45
23281;BME280;11809;56.390;-3.266;2023-05-21T13:25:18;102177.03;;;18.95;60.26
23281;BME280;11809;56.390;-3.266;2023-05-21T13:27:49;102175.19;;;18.95;60.22
23281;BME280;11809;56.390;-3.266;2023-05-21T13:30:17;102177.78;;;18.97;60.49